Time;durP1;ratioP1;P1;durP2;ratioP2;P2;SDS_P1;SDS_P2;PMS_P1;PMS_P2;Temp;Humidity;BMP_temperature;BMP_pressure;BME280_temperature;BME280_humidity;BME280_pressure;Samples;Min_cycle;Max_cycle;Signal;HPM_P1;HPM_P2
2023/09/08 00:01:55;;;;;;;4.75;3.13;;;19.10;93.10;;;;;;4986347;28;20046;-63
2023/09/08 00:04:21;;;;;;;4.18;3.35;;;19.10;92.80;;;;;;5002176;28;20497;-63
2023/09/08 00:06:47;;;;;;;3.65;3.20;;;19.10;92.90;;;;;;5005747;28;20073;-63
2023/09/08 00:09:13;;;;;;;8.18;3.70;;;19.00;92.90;;;;;;4994835;28;20558;-63
2023/09/08 00:11:39;;;;;;;3.80;3.20;;;19.00;92.90;;;;;;5006801;28;20069;-63
2023/09/08 00:14:05;;;;;;;3.30;2.70;;;19.00;92.90;;;;;;5008070;28;20152;-63
2023/09/08 00:16:30;;;;;;;4.80;3.17;;;18.90;93.10;;;;;;5005682;28;20127;-63
2023/09/08 00:19:00;;;;;;;3.53;3.22;;;18.90;93.70;;;;;;5007369;28;20042;-63
2023/09/08 00:21:26;;;;;;;3.55;3.10;;;18.80;94.70;;;;;;4991216;28;20377;-63
2023/09/08 00:23:53;;;;;;;3.05;2.85;;;18.80;95.60;;;;;;4989308;28;20484;-63
2023/09/08 00:26:19;;;;;;;10.48;3.58;;;18.70;96.20;;;;;;4997880;28;20038;-63
2023/09/08 00:28:44;;;;;;;4.00;3.60;;;18.70;96.70;;;;;;4987518;28;20053;-63
2023/09/08 00:31:10;;;;;;;3.80;3.00;;;18.60;96.80;;;;;;5005743;28;20482;-64
2023/09/08 00:33:37;;;;;;;3.88;2.90;;;18.60;97.60;;;;;;5000484;28;20126;-62
2023/09/08 00:36:03;;;;;;;3.85;2.90;;;18.50;98.20;;;;;;5002197;28;20052;-63
2023/09/08 00:38:29;;;;;;;3.53;3.20;;;18.50;98.90;;;;;;4989857;28;20092;-63
2023/09/08 00:40:54;;;;;;;3.50;3.20;;;18.40;99.70;;;;;;5006702;28;20046;-63
2023/09/08 00:43:20;;;;;;;3.63;3.10;;;18.50;99.90;;;;;;5007484;28;20042;-63
2023/09/08 00:45:47;;;;;;;3.25;3.05;;;18.40;99.90;;;;;;5006309;28;20038;-63
2023/09/08 00:48:13;;;;;;;4.47;3.15;;;18.50;99.80;;;;;;5006828;28;20050;-63
2023/09/08 00:50:39;;;;;;;4.40;2.92;;;18.40;99.90;;;;;;5005433;28;20038;-63
2023/09/08 00:53:06;;;;;;;4.88;3.20;;;18.40;99.90;;;;;;5005768;28;20496;-63
2023/09/08 00:55:33;;;;;;;3.50;3.20;;;18.40;99.90;;;;;;5005516;28;20171;-63
2023/09/08 00:57:59;;;;;;;6.13;3.10;;;18.40;99.90;;;;;;4988072;28;20065;-63
2023/09/08 01:00:26;;;;;;;4.28;3.17;;;18.40;99.90;;;;;;5007021;28;20057;-63
2023/09/08 01:02:52;;;;;;;4.25;3.50;;;18.40;99.90;;;;;;4987594;28;20053;-63
2023/09/08 01:05:18;;;;;;;2.97;2.67;;;18.30;99.90;;;;;;4985506;28;20060;-63
2023/09/08 01:07:46;;;;;;;3.90;3.00;;;18.30;99.90;;;;;;4986788;28;20080;-63
2023/09/08 01:10:13;;;;;;;3.27;3.00;;;18.30;99.90;;;;;;5006743;28;20037;-63
2023/09/08 01:12:39;;;;;;;2.97;2.75;;;18.30;99.90;;;;;;4989061;28;20191;-63
2023/09/08 01:15:07;;;;;;;4.80;3.15;;;18.30;99.90;;;;;;4988781;28;20639;-63
2023/09/08 01:17:33;;;;;;;4.00;2.92;;;18.30;99.90;;;;;;5007037;28;20518;-63
2023/09/08 01:20:11;;;;;;;5.43;3.03;;;18.20;99.90;;;;;;5005857;28;20050;-63
2023/09/08 01:23:11;;;;;;;5.00;3.72;;;18.20;99.90;;;;;;5008008;28;20042;-63
2023/09/08 01:25:46;;;;;;;7.40;2.95;;;18.20;99.90;;;;;;4992262;28;20630;-63
2023/09/08 01:28:12;;;;;;;3.45;2.83;;;18.20;99.90;;;;;;5006310;28;20389;-63
2023/09/08 01:30:39;;;;;;;3.17;2.88;;;18.10;99.90;;;;;;5007453;28;20038;-63
2023/09/08 01:33:05;;;;;;;3.88;3.08;;;18.10;99.90;;;;;;5005340;28;20060;-63
2023/09/08 01:35:31;;;;;;;3.13;2.92;;;18.10;99.90;;;;;;4988831;28;20056;-63
2023/09/08 01:37:58;;;;;;;3.20;3.00;;;18.10;99.90;;;;;;4992737;28;20065;-63
2023/09/08 01:40:23;;;;;;;5.55;3.00;;;18.10;99.90;;;;;;5007943;28;20178;-63
2023/09/08 01:42:49;;;;;;;4.95;3.17;;;18.10;99.90;;;;;;5006325;28;20112;-63
2023/09/08 01:45:15;;;;;;;3.30;2.80;;;18.10;99.90;;;;;;4991579;28;20050;-63
2023/09/08 01:47:41;;;;;;;3.40;3.10;;;18.00;99.90;;;;;;5011111;28;20060;-63
2023/09/08 01:50:07;;;;;;;3.47;3.17;;;18.00;99.90;;;;;;5009266;28;20462;-63
2023/09/08 01:52:32;;;;;;;4.85;3.08;;;17.90;99.90;;;;;;5011079;28;20053;-63
2023/09/08 01:54:58;;;;;;;3.13;2.85;;;17.90;99.90;;;;;;4990828;28;20041;-63
2023/09/08 01:57:25;;;;;;;3.78;2.90;;;17.80;99.90;;;;;;4993259;28;20088;-63
2023/09/08 01:59:50;;;;;;;3.13;2.80;;;17.80;99.90;;;;;;5009761;28;20054;-63
2023/09/08 02:02:16;;;;;;;6.13;2.90;;;17.80;99.90;;;;;;4992527;28;20104;-63
2023/09/08 02:04:42;;;;;;;3.10;2.80;;;17.70;99.90;;;;;;5009801;28;20046;-63
2023/09/08 02:07:08;;;;;;;6.50;2.60;;;17.60;99.90;;;;;;4992186;28;20068;-63
2023/09/08 02:09:36;;;;;;;2.92;2.72;;;17.60;99.90;;;;;;4992774;28;20399;-63
2023/09/08 02:12:02;;;;;;;2.78;2.58;;;17.50;99.90;;;;;;5008868;28;20049;-63
2023/09/08 02:14:28;;;;;;;8.48;2.85;;;17.50;99.90;;;;;;5010717;28;20104;-63
2023/09/08 02:16:54;;;;;;;3.58;2.78;;;17.40;99.90;;;;;;5008574;28;20073;-64
2023/09/08 02:19:20;;;;;;;2.50;2.30;;;17.40;99.90;;;;;;4992281;28;20125;-63
2023/09/08 02:21:45;;;;;;;4.80;2.90;;;17.30;99.90;;;;;;4991605;28;20142;-63
2023/09/08 02:24:11;;;;;;;3.35;3.10;;;17.20;99.90;;;;;;5009561;28;20082;-63
2023/09/08 02:26:38;;;;;;;3.00;2.80;;;17.20;99.90;;;;;;5009311;28;20500;-63
2023/09/08 02:29:04;;;;;;;3.38;2.95;;;17.10;99.90;;;;;;5008880;28;20050;-64
2023/09/08 02:31:30;;;;;;;2.78;2.58;;;17.00;99.90;;;;;;5004902;28;20034;-63
2023/09/08 02:33:56;;;;;;;3.72;3.10;;;16.90;99.90;;;;;;5008870;28;20676;-63
2023/09/08 02:36:25;;;;;;;4.85;3.17;;;16.80;99.90;;;;;;5003510;28;20057;-63
2023/09/08 02:38:54;;;;;;;4.95;2.88;;;16.70;99.90;;;;;;5009088;28;20084;-63
2023/09/08 02:41:20;;;;;;;3.20;2.92;;;16.60;99.90;;;;;;4991828;28;20118;-63
2023/09/08 02:43:46;;;;;;;3.10;2.90;;;16.50;99.90;;;;;;5009894;28;20041;-63
2023/09/08 02:46:12;;;;;;;3.17;2.80;;;16.50;99.90;;;;;;5005087;28;20504;-63
2023/09/08 02:48:38;;;;;;;4.07;3.67;;;16.40;99.90;;;;;;5008454;28;20054;-64
2023/09/08 02:51:04;;;;;;;3.25;2.95;;;16.40;99.90;;;;;;5007503;28;20128;-63
2023/09/08 02:53:30;;;;;;;9.88;2.92;;;16.40;99.90;;;;;;5006812;28;20054;-63
2023/09/08 02:55:57;;;;;;;2.95;2.65;;;16.30;99.90;;;;;;4974282;28;20058;-63
2023/09/08 02:58:23;;;;;;;5.20;3.47;;;16.30;99.90;;;;;;5006570;28;20053;-63
2023/09/08 03:00:49;;;;;;;2.95;2.75;;;16.30;99.90;;;;;;4991388;28;20652;-63
2023/09/08 03:03:14;;;;;;;4.03;3.65;;;16.20;99.90;;;;;;5009012;28;20042;-63
2023/09/08 03:05:40;;;;;;;4.75;3.42;;;16.20;99.90;;;;;;5009453;28;20103;-63
2023/09/08 03:08:06;;;;;;;5.45;3.30;;;16.10;99.90;;;;;;5007719;28;20046;-63
2023/09/08 03:10:35;;;;;;;2.70;2.53;;;16.10;99.90;;;;;;5009599;28;20038;-63
2023/09/08 03:13:02;;;;;;;3.65;3.35;;;16.10;99.90;;;;;;5008157;28;20050;-63
2023/09/08 03:15:28;;;;;;;3.20;3.00;;;16.10;99.90;;;;;;4991722;28;20050;-63
2023/09/08 03:17:58;;;;;;;3.40;3.13;;;16.00;99.90;;;;;;5007359;28;20034;-63
2023/09/08 03:20:28;;;;;;;2.90;2.70;;;16.00;99.90;;;;;;4990942;28;20293;-63
2023/09/08 03:22:54;;;;;;;4.95;2.85;;;16.00;99.90;;;;;;5009646;28;20050;-63
2023/09/08 03:25:21;;;;;;;6.00;3.17;;;15.90;99.90;;;;;;5004196;28;20577;-63
2023/09/08 03:27:47;;;;;;;3.60;3.30;;;15.90;99.90;;;;;;4986672;28;20092;-63
2023/09/08 03:30:13;;;;;;;3.13;2.85;;;15.90;99.90;;;;;;5006936;28;20069;-63
2023/09/08 03:32:39;;;;;;;3.17;2.88;;;15.90;99.90;;;;;;5009039;28;20068;-63
2023/09/08 03:35:08;;;;;;;3.53;2.83;;;15.90;99.90;;;;;;5007835;28;20050;-63
2023/09/08 03:37:37;;;;;;;3.67;2.80;;;15.90;99.90;;;;;;5005317;28;20072;-63
2023/09/08 03:40:06;;;;;;;7.07;2.75;;;15.90;99.90;;;;;;4983358;28;20510;-63
2023/09/08 03:42:32;;;;;;;3.17;2.83;;;15.90;99.90;;;;;;4990686;28;20042;-63
2023/09/08 03:44:58;;;;;;;5.47;2.80;;;15.80;99.90;;;;;;5008915;28;20042;-63
2023/09/08 03:47:23;;;;;;;3.10;2.90;;;15.80;99.90;;;;;;4976089;28;20055;-64
2023/09/08 03:49:49;;;;;;;4.55;3.22;;;15.70;99.90;;;;;;5004553;28;20053;-64
2023/09/08 03:52:15;;;;;;;2.78;2.58;;;15.70;99.90;;;;;;5007387;28;20061;-63
2023/09/08 03:54:41;;;;;;;4.10;2.72;;;15.70;99.90;;;;;;5008744;28;20065;-64
2023/09/08 03:57:07;;;;;;;3.25;3.05;;;15.70;99.90;;;;;;5006956;28;20396;-63
2023/09/08 03:59:32;;;;;;;5.25;3.05;;;15.70;99.90;;;;;;5007592;28;20416;-63
2023/09/08 04:01:58;;;;;;;3.72;3.22;;;15.60;99.90;;;;;;4990032;28;20137;-63
2023/09/08 04:04:24;;;;;;;3.95;3.22;;;15.70;99.90;;;;;;5007300;28;20044;-63
2023/09/08 04:06:49;;;;;;;5.35;3.40;;;15.70;99.90;;;;;;5007935;28;20074;-63
2023/09/08 04:09:15;;;;;;;3.47;3.15;;;15.80;99.90;;;;;;4996624;28;20129;-63
2023/09/08 04:11:41;;;;;;;6.95;3.15;;;15.80;99.90;;;;;;4991022;28;20077;-63
2023/09/08 04:14:07;;;;;;;3.85;3.05;;;15.80;99.90;;;;;;4989795;28;20061;-63
2023/09/08 04:16:32;;;;;;;3.53;3.15;;;15.70;99.90;;;;;;4990519;28;20117;-63
2023/09/08 04:18:58;;;;;;;4.10;3.35;;;15.60;99.90;;;;;;4989596;28;20064;-63
2023/09/08 04:21:24;;;;;;;3.20;3.00;;;15.60;99.90;;;;;;5004775;28;20042;-63
2023/09/08 04:23:49;;;;;;;6.50;3.30;;;15.50;99.90;;;;;;5002865;28;20437;-63
2023/09/08 04:26:15;;;;;;;3.40;3.15;;;15.50;99.90;;;;;;4949588;28;20124;-63
2023/09/08 04:28:41;;;;;;;3.75;3.40;;;15.50;99.90;;;;;;5004254;28;20042;-63
2023/09/08 04:31:07;;;;;;;3.53;3.28;;;15.50;99.90;;;;;;4993734;28;20058;-62
2023/09/08 04:33:32;;;;;;;3.17;2.88;;;15.50;99.90;;;;;;5008135;28;20034;-63
2023/09/08 04:35:58;;;;;;;3.83;3.30;;;15.50;99.90;;;;;;5007246;28;20461;-63
2023/09/08 04:38:24;;;;;;;3.28;3.03;;;15.50;99.90;;;;;;4989480;28;20125;-63
2023/09/08 04:40:49;;;;;;;4.53;4.13;;;15.50;99.90;;;;;;5007289;28;20092;-63
2023/09/08 04:43:15;;;;;;;4.60;3.40;;;15.50;99.90;;;;;;5006666;28;20062;-63
2023/09/08 04:45:41;;;;;;;3.60;3.30;;;15.50;99.90;;;;;;5007711;28;20092;-63
2023/09/08 04:48:07;;;;;;;5.78;3.53;;;15.50;99.90;;;;;;5006508;28;20049;-63
2023/09/08 04:50:32;;;;;;;3.72;3.42;;;15.50;99.90;;;;;;5006950;28;20046;-63
2023/09/08 04:52:58;;;;;;;4.03;3.60;;;15.50;99.90;;;;;;5006605;28;20045;-63
2023/09/08 04:55:24;;;;;;;6.28;3.45;;;15.50;99.90;;;;;;4973323;28;20037;-63
2023/09/08 04:57:50;;;;;;;5.57;4.35;;;15.40;99.90;;;;;;5007278;28;20137;-63
2023/09/08 05:00:16;;;;;;;6.30;3.97;;;15.40;99.90;;;;;;5004333;28;20109;-63
2023/09/08 05:02:41;;;;;;;4.30;3.90;;;15.40;99.90;;;;;;4994785;28;20046;-63
2023/09/08 05:05:07;;;;;;;3.85;3.55;;;15.50;99.90;;;;;;5006295;28;20050;-63
2023/09/08 05:07:33;;;;;;;5.75;4.03;;;15.40;99.90;;;;;;5007336;28;20574;-63
2023/09/08 05:09:59;;;;;;;3.70;3.40;;;15.40;99.90;;;;;;5006514;28;20046;-63
2023/09/08 05:12:25;;;;;;;4.90;3.80;;;15.40;99.90;;;;;;4973041;28;20104;-63
2023/09/08 05:14:56;;;;;;;8.82;4.40;;;15.30;99.90;;;;;;4989255;28;20080;-63
2023/09/08 05:17:23;;;;;;;9.55;3.88;;;15.40;99.90;;;;;;4989108;28;20060;-63
2023/09/08 05:19:49;;;;;;;6.07;3.58;;;15.30;99.90;;;;;;4992979;28;20588;-63
2023/09/08 05:22:15;;;;;;;3.90;3.60;;;15.30;99.90;;;;;;5010396;28;20120;-63
2023/09/08 05:24:43;;;;;;;4.25;3.85;;;15.30;99.90;;;;;;5011525;28;20137;-63
2023/09/08 05:27:09;;;;;;;4.30;3.67;;;15.40;99.90;;;;;;4991977;28;20042;-63
2023/09/08 05:29:34;;;;;;;4.63;3.85;;;15.30;99.90;;;;;;5011152;28;20060;-63
2023/09/08 05:32:00;;;;;;;3.90;3.40;;;15.30;99.90;;;;;;5009135;28;20455;-63
2023/09/08 05:34:26;;;;;;;4.38;3.92;;;15.30;99.90;;;;;;5011188;28;20073;-63
2023/09/08 05:36:51;;;;;;;6.63;4.47;;;15.40;99.90;;;;;;5010957;28;20132;-63
2023/09/08 05:39:19;;;;;;;7.60;5.03;;;15.40;99.90;;;;;;4992713;28;20088;-63
2023/09/08 05:41:45;;;;;;;5.53;4.78;;;15.40;99.90;;;;;;5004255;28;20053;-63
2023/09/08 05:44:11;;;;;;;6.72;3.97;;;15.50;99.90;;;;;;4975920;28;20085;-63
2023/09/08 05:46:37;;;;;;;5.05;4.03;;;15.50;99.90;;;;;;4977104;28;20082;-63
2023/09/08 05:49:02;;;;;;;5.20;4.22;;;15.50;99.90;;;;;;4992158;28;20128;-63
2023/09/08 05:51:29;;;;;;;5.97;4.43;;;15.60;99.90;;;;;;5007575;28;20053;-63
2023/09/08 05:53:55;;;;;;;6.95;3.85;;;15.60;99.90;;;;;;5010780;28;20213;-63
2023/09/08 05:56:24;;;;;;;5.90;4.20;;;15.60;99.90;;;;;;4989502;28;20053;-63
2023/09/08 05:58:49;;;;;;;6.00;4.20;;;15.60;99.90;;;;;;5002298;28;20049;-63
2023/09/08 06:01:16;;;;;;;6.63;4.07;;;15.70;99.90;;;;;;5009618;28;20127;-63
2023/09/08 06:03:42;;;;;;;8.15;5.15;;;15.80;99.90;;;;;;5009805;28;20113;-63
2023/09/08 06:06:08;;;;;;;7.63;4.68;;;15.80;99.90;;;;;;5009484;28;20097;-63
2023/09/08 06:08:33;;;;;;;4.47;4.10;;;15.80;99.90;;;;;;5010879;28;20053;-63
2023/09/08 06:10:59;;;;;;;5.28;4.32;;;15.90;99.90;;;;;;4992132;28;20522;-63
2023/09/08 06:13:25;;;;;;;5.57;5.00;;;16.00;99.90;;;;;;5009759;28;20052;-62
2023/09/08 06:15:51;;;;;;;7.03;4.82;;;16.10;99.90;;;;;;5009940;28;20046;-63
2023/09/08 06:18:17;;;;;;;5.10;4.70;;;16.20;99.90;;;;;;4978695;28;20392;-63
2023/09/08 06:20:48;;;;;;;6.47;5.20;;;16.30;99.90;;;;;;5010614;28;20104;-63
2023/09/08 06:23:14;;;;;;;5.75;5.07;;;16.50;99.90;;;;;;5009246;28;20068;-62
2023/09/08 06:25:40;;;;;;;8.85;4.70;;;16.60;99.90;;;;;;4992423;28;20050;-63
2023/09/08 06:28:06;;;;;;;6.57;5.10;;;16.80;99.90;;;;;;4992179;28;20096;-63
2023/09/08 06:30:32;;;;;;;7.30;5.32;;;16.80;99.90;;;;;;4976015;28;20091;-63
2023/09/08 06:32:58;;;;;;;10.32;5.50;;;17.00;99.90;;;;;;5000083;28;20132;-63
2023/09/08 06:35:25;;;;;;;9.23;5.45;;;17.10;99.90;;;;;;5009687;28;20061;-63
2023/09/08 06:37:51;;;;;;;9.73;5.57;;;17.30;99.90;;;;;;5009457;28;20053;-62
2023/09/08 06:40:16;;;;;;;5.97;5.38;;;17.50;99.90;;;;;;5002808;28;20076;-63
2023/09/08 06:42:42;;;;;;;8.18;5.72;;;17.80;99.90;;;;;;5009547;28;20057;-63
2023/09/08 06:45:08;;;;;;;7.55;4.75;;;18.10;99.90;;;;;;4986731;28;20053;-63
2023/09/08 06:47:34;;;;;;;8.60;5.03;;;18.40;99.90;;;;;;5005767;28;20042;-62
2023/09/08 06:50:06;;;;;;;5.95;4.70;;;18.70;99.90;;;;;;4966398;28;20058;-62
2023/09/08 06:52:32;;;;;;;7.28;5.47;;;19.00;99.90;;;;;;4991970;28;20058;-63
2023/09/08 06:54:58;;;;;;;5.72;5.13;;;19.10;99.90;;;;;;5009546;28;20519;-63
2023/09/08 06:57:23;;;;;;;7.13;5.03;;;19.30;99.90;;;;;;5007028;28;20072;-62
2023/09/08 06:59:49;;;;;;;7.25;5.03;;;19.40;99.90;;;;;;4990850;28;20120;-63
2023/09/08 07:02:15;;;;;;;5.28;4.70;;;19.60;99.90;;;;;;4998215;28;20180;-63
2023/09/08 07:04:41;;;;;;;5.65;5.15;;;19.80;99.90;;;;;;5003019;28;20033;-63
2023/09/08 07:07:07;;;;;;;5.38;4.88;;;20.00;99.90;;;;;;4999029;28;20046;-62
2023/09/08 07:09:35;;;;;;;5.88;5.38;;;20.20;99.90;;;;;;4990838;28;20041;-63
2023/09/08 07:12:01;;;;;;;10.80;5.53;;;20.40;99.90;;;;;;4982018;28;20053;-63
2023/09/08 07:14:26;;;;;;;5.15;4.75;;;20.60;99.90;;;;;;4990249;28;20061;-63
2023/09/08 07:16:52;;;;;;;10.63;5.55;;;20.70;97.50;;;;;;4991400;28;20050;-63
2023/09/08 07:19:18;;;;;;;7.07;5.25;;;20.90;95.10;;;;;;5008027;28;20081;-63
2023/09/08 07:21:43;;;;;;;5.20;4.70;;;21.00;94.40;;;;;;5007728;28;20381;-63
2023/09/08 07:24:09;;;;;;;6.68;5.68;;;21.20;91.90;;;;;;4990081;28;20046;-63
2023/09/08 07:26:35;;;;;;;7.60;5.03;;;21.30;93.10;;;;;;4990900;28;20203;-63
2023/09/08 07:29:01;;;;;;;8.80;5.47;;;21.40;92.30;;;;;;5007970;28;20042;-62
2023/09/08 07:31:26;;;;;;;9.35;5.28;;;21.50;89.90;;;;;;5003852;28;20042;-63
2023/09/08 07:33:52;;;;;;;5.70;5.10;;;21.60;90.50;;;;;;4980980;28;20448;-63
2023/09/08 07:36:18;;;;;;;5.25;4.85;;;21.80;92.40;;;;;;4995993;28;20133;-63
2023/09/08 07:38:43;;;;;;;8.38;5.68;;;22.10;93.10;;;;;;4982531;28;20042;-63
2023/09/08 07:41:09;;;;;;;5.97;5.40;;;22.20;90.30;;;;;;4995074;28;20579;-63
2023/09/08 07:43:40;;;;;;;7.65;5.25;;;22.40;85.70;;;;;;4977635;28;20530;-63
2023/09/08 07:46:06;;;;;;;5.93;5.35;;;22.50;86.00;;;;;;4987781;28;20117;-63
2023/09/08 07:48:32;;;;;;;10.57;6.85;;;22.70;86.90;;;;;;4993670;28;20050;-63
2023/09/08 07:50:59;;;;;;;9.07;5.93;;;22.80;82.00;;;;;;5005950;28;20068;-63
2023/09/08 07:53:26;;;;;;;7.78;5.65;;;23.00;82.90;;;;;;5000938;28;20100;-63
2023/09/08 07:55:52;;;;;;;8.10;6.03;;;23.10;78.50;;;;;;4981476;28;20536;-63
2023/09/08 07:58:18;;;;;;;6.97;5.20;;;23.30;73.90;;;;;;4996114;28;20045;-63
2023/09/08 08:00:44;;;;;;;5.47;4.97;;;23.40;66.00;;;;;;4996982;28;20048;-63
2023/09/08 08:03:10;;;;;;;7.97;5.10;;;23.50;51.60;;;;;;4985307;28;20050;-63
2023/09/08 08:05:36;;;;;;;9.10;4.70;;;23.60;41.20;;;;;;4985516;28;20054;-63
2023/09/08 08:08:01;;;;;;;5.13;4.65;;;23.70;37.20;;;;;;4990566;28;20069;-63
2023/09/08 08:10:27;;;;;;;11.60;4.65;;;23.90;28.00;;;;;;4986112;28;20492;-63
2023/09/08 08:12:53;;;;;;;4.80;4.38;;;24.00;31.20;;;;;;4974163;28;20381;-63
2023/09/08 08:15:23;;;;;;;7.18;4.32;;;24.20;27.20;;;;;;4989317;28;20041;-63
2023/09/08 08:17:49;;;;;;;4.90;4.20;;;24.30;13.90;;;;;;5004214;28;20053;-63
2023/09/08 08:20:19;;;;;;;4.78;4.20;;;24.50;17.30;;;;;;5006579;28;20064;-63
2023/09/08 08:22:45;;;;;;;7.10;4.53;;;24.60;9.70;;;;;;5008400;28;20045;-64
2023/09/08 08:25:12;;;;;;;9.05;4.43;;;24.70;9.50;;;;;;5007161;28;20044;-63
2023/09/08 08:27:40;;;;;;;5.57;4.05;;;24.80;2.30;;;;;;5006819;28;20042;-63
2023/09/08 08:30:07;;;;;;;6.68;4.95;;;25.00;5.70;;;;;;4993895;28;20635;-63
2023/09/08 08:32:33;;;;;;;4.68;3.95;;;25.10;1.00;;;;;;5006779;28;20502;-63
2023/09/08 08:34:59;;;;;;;8.25;4.35;;;25.20;1.00;;;;;;5007190;28;20045;-63
2023/09/08 08:37:25;;;;;;;5.65;4.47;;;25.30;1.00;;;;;;4969344;28;20477;-63
2023/09/08 08:39:52;;;;;;;10.98;4.75;;;25.30;1.00;;;;;;5006526;28;20045;-63
2023/09/08 08:42:22;;;;;;;4.57;3.95;;;25.50;1.00;;;;;;5006726;28;20519;-63
2023/09/08 08:44:47;;;;;;;;;;;25.50;1.00;;;;;;4990238;28;20053;-63
2023/09/08 08:47:15;;;;;;;5.15;4.40;;;25.60;1.00;;;;;;5007629;28;20303;-63
2023/09/08 08:49:46;;;;;;;6.88;4.50;;;25.70;1.00;;;;;;4985937;28;20082;-63
2023/09/08 08:52:14;;;;;;;7.47;4.72;;;25.80;1.00;;;;;;4973736;28;20073;-63
2023/09/08 08:54:40;;;;;;;4.35;4.03;;;25.90;1.00;;;;;;4968930;28;20100;-63
2023/09/08 08:57:11;;;;;;;4.78;4.38;;;25.90;1.00;;;;;;4987724;28;20549;-63
2023/09/08 08:59:36;;;;;;;4.47;3.75;;;26.00;1.00;;;;;;4983064;28;20074;-64
2023/09/08 09:02:03;;;;;;;5.45;4.55;;;26.10;1.00;;;;;;4979821;28;20966;-63
2023/09/08 09:04:29;;;;;;;8.40;3.83;;;26.20;1.00;;;;;;4958929;28;20042;-63
2023/09/08 09:06:58;;;;;;;6.75;3.83;;;26.30;1.00;;;;;;4972742;28;20118;-63
2023/09/08 09:09:25;;;;;;;4.15;3.67;;;26.30;1.00;;;;;;4973025;28;20517;-64
2023/09/08 09:11:51;;;;;;;7.03;4.28;;;26.30;1.00;;;;;;4978048;28;20081;-63
2023/09/08 09:14:17;;;;;;;4.55;4.05;;;26.40;1.00;;;;;;4986865;28;20515;-63
2023/09/08 09:16:44;;;;;;;9.30;4.18;;;26.40;1.00;;;;;;4969071;28;20042;-63
2023/09/08 09:19:25;;;;;;;5.80;4.10;;;26.50;1.00;;;;;;4987527;28;20500;-63
2023/09/08 09:21:54;;;;;;;6.60;4.30;;;26.60;1.00;;;;;;4977651;28;20117;-63
2023/09/08 09:24:43;;;;;;;11.70;4.80;;;26.70;1.00;;;;;;4968792;28;20840;-64
2023/09/08 09:27:10;;;;;;;8.65;5.22;;;26.80;1.00;;;;;;4987809;28;20046;-63
2023/09/08 09:29:49;;;;;;;9.52;4.88;;;26.90;1.00;;;;;;4981207;28;20042;-64
2023/09/08 09:32:16;;;;;;;9.02;4.97;;;27.00;1.00;;;;;;4954159;28;20360;-63
2023/09/08 09:34:50;;;;;;;5.82;4.65;;;27.10;1.00;;;;;;4973223;28;20505;-63
2023/09/08 09:37:16;;;;;;;7.00;4.95;;;27.20;1.00;;;;;;4985231;28;20066;-63
2023/09/08 09:39:42;;;;;;;9.00;4.80;;;27.30;1.00;;;;;;4981423;28;20038;-63
2023/09/08 09:42:08;;;;;;;4.82;3.88;;;27.30;1.00;;;;;;4979448;28;20561;-64
2023/09/08 09:44:34;;;;;;;11.90;4.90;;;27.40;1.00;;;;;;4971359;28;20039;-64
2023/09/08 09:47:01;;;;;;;5.47;4.82;;;27.40;1.00;;;;;;4958822;28;20129;-64
2023/09/08 09:49:31;;;;;;;7.18;4.57;;;27.50;1.00;;;;;;4975721;28;20054;-63
2023/09/08 09:51:58;;;;;;;8.00;4.78;;;27.60;1.00;;;;;;4972679;28;20404;-63
2023/09/08 09:54:24;;;;;;;5.60;4.13;;;27.60;1.00;;;;;;4962317;28;20046;-64
2023/09/08 09:56:51;;;;;;;7.68;3.90;;;27.70;1.00;;;;;;4997876;28;20066;-64
2023/09/08 09:59:17;;;;;;;4.90;3.50;;;27.80;1.00;;;;;;5003801;28;20088;-64
2023/09/08 10:01:44;;;;;;;5.55;3.47;;;27.90;1.00;;;;;;5005539;28;20467;-64
2023/09/08 10:04:10;;;;;;;2.78;2.58;;;27.90;1.00;;;;;;4973609;28;20038;-63
2023/09/08 10:06:38;;;;;;;3.00;2.80;;;27.90;1.00;;;;;;5004563;28;20096;-64
2023/09/08 10:09:13;;;;;;;5.47;2.83;;;28.00;1.00;;;;;;5003131;28;20451;-63
2023/09/08 10:11:49;;;;;;;8.10;2.53;;;28.00;1.00;;;;;;4998739;28;20129;-64
2023/09/08 10:14:18;;;;;;;2.38;2.22;;;28.10;1.00;;;;;;5008964;28;20058;-64
2023/09/08 10:16:49;;;;;;;2.97;2.75;;;28.20;1.00;;;;;;4961840;28;20084;-63
2023/09/08 10:19:16;;;;;;;4.47;2.60;;;28.20;1.00;;;;;;5010529;28;20045;-64
2023/09/08 10:21:45;;;;;;;2.85;2.28;;;28.30;1.00;;;;;;5005946;28;20046;-64
2023/09/08 10:24:24;;;;;;;5.15;2.22;;;28.30;1.00;;;;;;5009864;28;20491;-64
2023/09/08 10:27:03;;;;;;;3.55;2.88;;;28.40;1.00;;;;;;5009542;28;20049;-64
2023/09/08 10:29:31;;;;;;;7.95;3.00;;;28.40;1.00;;;;;;5008913;28;20053;-64
2023/09/08 10:31:58;;;;;;;3.67;2.60;;;28.50;1.00;;;;;;5001835;28;20056;-64
2023/09/08 10:34:25;;;;;;;3.70;3.13;;;28.60;1.00;;;;;;5008244;28;20805;-64
2023/09/08 10:36:52;;;;;;;5.68;3.25;;;28.60;1.00;;;;;;5009748;28;20041;-64
2023/09/08 10:39:39;;;;;;;3.63;3.17;;;28.70;1.00;;;;;;5009173;28;20405;-64
2023/09/08 10:42:20;;;;;;;3.40;3.10;;;28.70;1.00;;;;;;4991574;28;20046;-64
2023/09/08 10:44:51;;;;;;;4.38;3.40;;;28.80;1.00;;;;;;5009489;28;20474;-64
2023/09/08 10:47:23;;;;;;;5.20;2.70;;;28.80;1.00;;;;;;5008064;28;20042;-64
2023/09/08 10:49:53;;;;;;;5.15;3.22;;;28.80;1.00;;;;;;5009840;28;20057;-64
2023/09/08 10:52:22;;;;;;;3.83;3.47;;;28.80;1.00;;;;;;5008502;28;20057;-64
2023/09/08 10:54:49;;;;;;;2.70;2.30;;;28.90;1.00;;;;;;5008532;28;20053;-64
2023/09/08 10:57:22;;;;;;;5.07;2.45;;;28.90;1.00;;;;;;5000228;28;20039;-64
2023/09/08 10:59:55;;;;;;;2.92;2.53;;;28.90;1.00;;;;;;5005383;28;20049;-64
2023/09/08 11:02:35;;;;;;;2.92;2.25;;;28.90;1.00;;;;;;5006138;28;20389;-64
2023/09/08 11:05:04;;;;;;;5.47;2.30;;;29.00;1.00;;;;;;4990612;28;20076;-64
2023/09/08 11:07:32;;;;;;;3.20;2.38;;;28.90;1.00;;;;;;5004967;28;20056;-64
2023/09/08 11:09:59;;;;;;;3.00;2.50;;;29.00;1.00;;;;;;4991204;28;20428;-64
2023/09/08 11:12:27;;;;;;;2.88;2.60;;;29.00;1.00;;;;;;5004183;28;20068;-64
2023/09/08 11:14:53;;;;;;;4.37;2.17;;;29.00;1.00;;;;;;5008411;28;20069;-64
2023/09/08 11:17:19;;;;;;;2.78;2.53;;;29.10;1.00;;;;;;4973114;28;21511;-64
2023/09/08 11:19:49;;;;;;;3.05;1.95;;;29.10;1.00;;;;;;4994790;28;20046;-64
2023/09/08 11:22:16;;;;;;;5.28;2.67;;;29.20;1.00;;;;;;4995037;28;20050;-64
2023/09/08 11:24:43;;;;;;;4.75;2.35;;;29.20;1.00;;;;;;4999212;28;20046;-64
2023/09/08 11:27:10;;;;;;;2.05;1.77;;;29.20;1.00;;;;;;4978734;28;20408;-64
2023/09/08 11:29:36;;;;;;;5.60;2.53;;;29.30;1.00;;;;;;4998877;28;20140;-64
2023/09/08 11:32:06;;;;;;;6.13;2.10;;;29.30;1.00;;;;;;4985610;28;20538;-64
2023/09/08 11:34:32;;;;;;;2.55;1.80;;;29.30;1.00;;;;;;4999846;28;20081;-64
2023/09/08 11:36:57;;;;;;;2.13;1.90;;;29.40;1.00;;;;;;4995612;28;20089;-64
2023/09/08 11:39:27;;;;;;;1.70;1.60;;;29.40;1.00;;;;;;4999431;28;20089;-64
2023/09/08 11:41:53;;;;;;;3.33;2.28;;;29.30;1.00;;;;;;4978638;28;20469;-64
2023/09/08 11:44:20;;;;;;;3.63;1.90;;;29.30;1.00;;;;;;4988553;28;20041;-64
2023/09/08 11:46:48;;;;;;;1.90;1.80;;;29.40;1.00;;;;;;4969968;28;20050;-64
2023/09/08 11:49:14;;;;;;;3.05;1.70;;;29.40;1.00;;;;;;4997768;28;20065;-65
2023/09/08 11:51:39;;;;;;;5.57;2.28;;;29.40;1.00;;;;;;5000194;28;20416;-64
2023/09/08 11:54:05;;;;;;;2.58;2.13;;;29.50;1.00;;;;;;4989410;28;20068;-64
2023/09/08 11:56:32;;;;;;;5.50;2.40;;;29.50;1.00;;;;;;4982999;28;20081;-64
2023/09/08 11:58:58;;;;;;;2.40;2.20;;;29.60;1.00;;;;;;5000112;28;20523;-65
2023/09/08 12:01:24;;;;;;;2.65;2.45;;;29.60;1.00;;;;;;5000966;28;20058;-64
2023/09/08 12:03:57;;;;;;;1.90;1.70;;;29.60;1.00;;;;;;4989003;28;20499;-64
2023/09/08 12:06:27;;;;;;;5.68;1.85;;;29.60;1.00;;;;;;5008413;28;20034;-64
2023/09/08 12:08:56;;;;;;;2.35;2.10;;;29.70;1.00;;;;;;5007181;28;20049;-65
2023/09/08 12:11:23;;;;;;;;;;;29.70;1.00;;;;;;5004160;28;20045;-65
2023/09/08 12:13:48;;;;;;;2.00;1.90;;;29.80;1.00;;;;;;5006949;28;20509;-65
2023/09/08 12:16:19;;;;;;;2.15;2.05;;;29.80;1.00;;;;;;5008000;28;20526;-65
2023/09/08 12:18:45;;;;;;;6.30;2.00;;;29.90;1.00;;;;;;5007792;28;20517;-64
2023/09/08 12:21:11;;;;;;;2.00;1.90;;;29.90;1.00;;;;;;4986844;28;20575;-64
2023/09/08 12:23:50;;;;;;;2.22;2.00;;;30.00;1.00;;;;;;4995467;28;20041;-64
2023/09/08 12:26:16;;;;;;;2.60;2.40;;;30.00;1.00;;;;;;4990361;28;20058;-65
2023/09/08 12:28:43;;;;;;;4.05;2.00;;;30.10;1.00;;;;;;5001140;28;20045;-64
2023/09/08 12:31:09;;;;;;;2.40;1.90;;;30.20;1.00;;;;;;4986003;28;20052;-65
2023/09/08 12:33:36;;;;;;;1.90;1.80;;;30.30;1.00;;;;;;5000326;28;20042;-65
2023/09/08 12:36:15;;;;;;;4.30;2.17;;;30.30;1.00;;;;;;4994580;28;20082;-65
2023/09/08 12:38:46;;;;;;;2.67;1.80;;;30.40;1.00;;;;;;5000028;28;20117;-65
2023/09/08 12:41:12;;;;;;;2.28;2.08;;;30.30;1.00;;;;;;4991816;28;20042;-64
2023/09/08 12:43:38;;;;;;;3.30;2.20;;;30.30;1.00;;;;;;4991223;28;20046;-64
2023/09/08 12:46:03;;;;;;;2.33;1.60;;;30.30;1.00;;;;;;4984102;28;20111;-65
2023/09/08 12:48:29;;;;;;;3.75;2.10;;;30.30;1.00;;;;;;4996624;28;20046;-64
2023/09/08 12:50:55;;;;;;;2.15;1.83;;;30.30;1.00;;;;;;4995146;28;20072;-64